createdAt,value
2022-08-20T00:00:26.019Z,9.50
2022-08-20T00:01:12.979Z,10.10
2022-08-20T00:01:59.881Z,9.82
2022-08-20T00:02:52.860Z,9.15
2022-08-20T00:03:50.047Z,9.45
2022-08-20T00:04:39.540Z,10.50
2022-08-20T00:05:33.340Z,8.82
2022-08-20T00:06:23.263Z,8.85
2022-08-20T00:07:10.218Z,10.13
2022-08-20T00:07:57.405Z,9.13
2022-08-20T00:08:45.409Z,9.68
2022-08-20T00:09:32.319Z,10.02
2022-08-20T00:10:23.710Z,9.23
2022-08-20T00:11:13.136Z,9.88
2022-08-20T00:12:01.189Z,9.50
2022-08-20T00:12:49.519Z,9.65
2022-08-20T00:13:39.610Z,9.30
2022-08-20T00:14:26.500Z,10.15
2022-08-20T00:15:14.360Z,9.50
2022-08-20T00:16:01.690Z,9.27
2022-08-20T00:16:48.620Z,9.23
2022-08-20T00:17:38.570Z,8.20
2022-08-20T00:18:26.229Z,8.95
2022-08-20T00:19:13.031Z,9.10
2022-08-20T00:19:59.869Z,9.23
2022-08-20T00:20:49.000Z,9.50
2022-08-20T00:21:36.921Z,9.35
2022-08-20T00:22:24.319Z,11.18
2022-08-20T00:23:11.608Z,9.38
2022-08-20T00:23:59.509Z,8.75
2022-08-20T00:24:46.360Z,9.55
2022-08-20T00:25:33.419Z,8.60
2022-08-20T00:26:21.061Z,8.68
2022-08-20T00:27:08.169Z,8.90
2022-08-20T00:27:56.347Z,8.75
2022-08-20T00:28:43.240Z,9.43
2022-08-20T00:29:30.157Z,8.93
2022-08-20T00:30:16.969Z,9.48
2022-08-20T00:31:11.124Z,8.93
2022-08-20T00:31:58.090Z,9.70
2022-08-20T00:32:57.970Z,9.48
2022-08-20T00:33:45.539Z,8.85
2022-08-20T00:34:32.399Z,8.32
2022-08-20T00:35:21.509Z,8.50
2022-08-20T00:36:09.660Z,9.07
2022-08-20T00:36:56.639Z,9.85
2022-08-20T00:37:43.759Z,8.35
2022-08-20T00:38:31.750Z,8.63
2022-08-20T00:39:18.639Z,9.27
2022-08-20T00:40:07.570Z,7.85
2022-08-20T00:41:14.990Z,8.57
2022-08-20T00:42:02.340Z,8.43
2022-08-20T00:42:52.649Z,8.88
2022-08-20T00:43:43.493Z,8.48
2022-08-20T00:44:30.389Z,7.95
2022-08-20T00:45:18.949Z,9.18
2022-08-20T00:46:12.860Z,8.38
2022-08-20T00:47:00.450Z,8.23
2022-08-20T00:47:51.337Z,8.25
2022-08-20T00:48:41.461Z,8.85
2022-08-20T00:49:31.041Z,10.35
2022-08-20T00:50:22.249Z,9.50
2022-08-20T00:51:17.479Z,8.70
2022-08-20T00:52:12.890Z,9.07
2022-08-20T00:53:00.679Z,8.30
2022-08-20T00:53:48.189Z,8.73
2022-08-20T00:54:44.860Z,8.13
2022-08-20T00:55:32.948Z,9.15
2022-08-20T00:56:19.889Z,8.43
2022-08-20T00:57:25.480Z,9.05
2022-08-20T00:58:12.528Z,9.15
2022-08-20T00:59:00.501Z,9.95
2022-08-20T00:59:49.169Z,8.88
2022-08-20T01:00:38.489Z,8.45
2022-08-20T01:01:25.429Z,9.35
2022-08-20T01:02:15.385Z,10.63
2022-08-20T01:03:02.319Z,8.80
2022-08-20T01:03:50.319Z,10.00
2022-08-20T01:04:37.859Z,8.60
2022-08-20T01:05:29.439Z,9.05
2022-08-20T01:06:16.931Z,10.38
2022-08-20T01:07:05.510Z,9.02
2022-08-20T01:07:53.999Z,9.68
2022-08-20T01:08:42.019Z,9.15
2022-08-20T01:09:50.348Z,9.82
2022-08-20T01:10:38.962Z,9.05
2022-08-20T01:11:38.016Z,9.52
2022-08-20T01:12:26.261Z,8.68
2022-08-20T01:13:15.799Z,10.70
2022-08-20T01:14:25.869Z,11.35
2022-08-20T01:15:16.403Z,9.50
2022-08-20T01:16:54.880Z,10.27
2022-08-20T01:17:46.050Z,11.23
2022-08-20T01:18:32.989Z,10.25
2022-08-20T01:19:29.793Z,10.13
2022-08-20T01:20:20.040Z,9.57
2022-08-20T01:21:07.981Z,9.32
2022-08-20T01:21:54.921Z,10.30
2022-08-20T01:23:12.780Z,8.23
2022-08-20T01:24:09.430Z,8.45
2022-08-20T01:25:16.070Z,9.77
2022-08-20T01:26:11.859Z,9.52
2022-08-20T01:27:02.114Z,9.18
2022-08-20T01:27:55.585Z,9.20
2022-08-20T01:28:50.539Z,9.15
2022-08-20T01:29:39.479Z,10.30
2022-08-20T01:30:27.921Z,9.00
2022-08-20T01:31:20.801Z,10.13
2022-08-20T01:32:07.980Z,10.40
2022-08-20T01:32:55.219Z,9.20
2022-08-20T01:33:42.149Z,8.82
2022-08-20T01:34:31.042Z,9.63
2022-08-20T01:35:22.885Z,9.68
2022-08-20T01:36:10.741Z,9.48
2022-08-20T01:36:59.713Z,9.50
2022-08-20T01:37:46.536Z,9.32
2022-08-20T01:38:34.709Z,10.02
2022-08-20T01:39:24.619Z,10.07
2022-08-20T01:40:14.666Z,8.82
2022-08-20T01:41:28.626Z,9.35
2022-08-20T01:42:21.081Z,10.73
2022-08-20T01:43:09.171Z,10.00
2022-08-20T01:43:58.523Z,9.98
2022-08-20T01:44:47.290Z,9.75
2022-08-20T01:45:34.129Z,9.68
2022-08-20T01:46:20.969Z,9.25
2022-08-20T01:47:20.090Z,11.25
2022-08-20T01:48:08.202Z,9.50
2022-08-20T01:48:57.487Z,11.02
2022-08-20T01:49:48.851Z,10.77
2022-08-20T01:50:38.450Z,10.68
2022-08-20T01:51:28.499Z,10.63
2022-08-20T01:52:24.269Z,11.75
2022-08-20T01:53:45.480Z,11.43
2022-08-20T01:54:33.199Z,11.00
2022-08-20T01:55:20.099Z,10.73
2022-08-20T01:56:10.479Z,10.50
2022-08-20T01:57:13.792Z,12.68
2022-08-20T01:58:01.449Z,11.52
2022-08-20T01:58:53.763Z,11.57
2022-08-20T01:59:43.741Z,10.63
2022-08-20T02:00:30.782Z,11.20
2022-08-20T02:01:28.621Z,10.43
2022-08-20T02:02:15.450Z,11.75
2022-08-20T02:03:03.537Z,11.77
2022-08-20T02:03:51.350Z,10.45
2022-08-20T02:04:38.350Z,11.65
2022-08-20T02:05:25.110Z,11.35
2022-08-20T02:06:18.057Z,10.50
2022-08-20T02:07:07.026Z,10.38
2022-08-20T02:07:53.936Z,10.95
2022-08-20T02:08:40.800Z,10.85
2022-08-20T02:09:34.039Z,11.38
2022-08-20T02:10:21.100Z,11.77
2022-08-20T02:11:08.840Z,11.30
2022-08-20T02:11:57.711Z,10.18
2022-08-20T02:12:44.910Z,10.50
2022-08-20T02:13:32.879Z,10.93
2022-08-20T02:14:20.471Z,10.40
2022-08-20T02:15:11.106Z,11.48
2022-08-20T02:15:58.080Z,10.60
2022-08-20T02:16:54.909Z,10.75
2022-08-20T02:17:42.739Z,10.45
2022-08-20T02:18:29.619Z,10.57
2022-08-20T02:19:30.468Z,11.02
2022-08-20T02:20:21.239Z,11.10
2022-08-20T02:21:08.049Z,11.07
2022-08-20T02:21:57.379Z,11.38
2022-08-20T02:22:50.193Z,11.25
2022-08-20T02:23:37.379Z,11.43
2022-08-20T02:24:24.300Z,9.93
2022-08-20T02:25:12.479Z,10.70
2022-08-20T02:25:59.541Z,12.35
2022-08-20T02:26:46.494Z,11.43
2022-08-20T02:27:33.401Z,11.18
2022-08-20T02:28:20.891Z,11.88
2022-08-20T02:29:09.759Z,12.40
2022-08-20T02:29:56.759Z,11.80
2022-08-20T02:30:47.160Z,12.13
2022-08-20T02:31:35.145Z,12.05
2022-08-20T02:32:24.435Z,11.45
2022-08-20T02:33:24.426Z,12.43
2022-08-20T02:34:18.531Z,11.98
2022-08-20T02:35:11.243Z,11.07
2022-08-20T02:35:58.180Z,11.30
2022-08-20T02:36:46.272Z,12.27
2022-08-20T02:37:33.300Z,12.00
2022-08-20T02:38:20.119Z,13.23
2022-08-20T02:39:09.000Z,12.43
2022-08-20T02:39:55.937Z,12.15
2022-08-20T02:40:44.439Z,12.15
2022-08-20T02:41:31.309Z,11.55
2022-08-20T02:42:18.280Z,11.85
2022-08-20T02:43:05.598Z,12.80
2022-08-20T02:43:52.419Z,13.02
2022-08-20T02:44:39.929Z,13.43
2022-08-20T02:45:27.670Z,14.18
2022-08-20T02:46:15.819Z,13.65
2022-08-20T02:47:02.819Z,14.10
2022-08-20T02:47:52.658Z,13.20
2022-08-20T02:48:40.599Z,13.88
2022-08-20T02:49:27.829Z,14.87
2022-08-20T02:50:17.819Z,13.23
2022-08-20T02:51:06.629Z,13.57
2022-08-20T02:51:53.520Z,13.23
2022-08-20T02:52:41.209Z,13.07
2022-08-20T02:53:41.902Z,13.05
2022-08-20T02:55:23.076Z,13.13
2022-08-20T02:56:14.049Z,13.50
2022-08-20T02:57:01.728Z,14.48
2022-08-20T02:57:48.617Z,12.55
2022-08-20T02:58:39.070Z,14.43
2022-08-20T02:59:25.921Z,13.48
2022-08-20T03:00:18.871Z,13.02
2022-08-20T03:01:07.672Z,12.85
2022-08-20T03:01:59.206Z,12.98
2022-08-20T03:02:48.380Z,13.20
2022-08-20T03:03:35.163Z,12.95
2022-08-20T03:04:22.029Z,12.15
2022-08-20T03:05:13.389Z,13.25
2022-08-20T03:06:01.351Z,12.30
2022-08-20T03:06:48.149Z,13.02
2022-08-20T03:07:45.600Z,12.75
2022-08-20T03:08:32.420Z,13.55
2022-08-20T03:09:19.230Z,13.18
2022-08-20T03:10:06.540Z,12.27
2022-08-20T03:10:53.529Z,12.85
2022-08-20T03:11:40.389Z,13.50
2022-08-20T03:12:27.240Z,12.80
2022-08-20T03:13:15.519Z,11.43
2022-08-20T03:14:02.388Z,12.07
2022-08-20T03:14:49.319Z,12.55
2022-08-20T03:15:36.121Z,11.82
2022-08-20T03:16:22.970Z,13.10
2022-08-20T03:17:09.789Z,12.60
2022-08-20T03:17:57.045Z,11.85
2022-08-20T03:18:46.649Z,13.15
2022-08-20T03:19:33.812Z,12.77
2022-08-20T03:20:23.772Z,12.68
2022-08-20T03:21:14.750Z,11.93
2022-08-20T03:22:02.419Z,11.88
2022-08-20T03:22:51.959Z,12.98
2022-08-20T03:23:40.451Z,12.18
2022-08-20T03:24:27.370Z,11.60
2022-08-20T03:25:14.269Z,11.90
2022-08-20T03:26:01.362Z,11.80
2022-08-20T03:26:48.180Z,12.05
2022-08-20T03:27:36.471Z,12.63
2022-08-20T03:28:23.760Z,11.20
2022-08-20T03:29:10.909Z,11.00
2022-08-20T03:29:57.711Z,10.93
2022-08-20T03:30:44.819Z,12.98
2022-08-20T03:31:31.792Z,11.27
2022-08-20T03:32:18.731Z,12.07
2022-08-20T03:33:05.782Z,12.85
2022-08-20T03:33:53.722Z,11.48
2022-08-20T03:34:40.661Z,12.85
2022-08-20T03:35:29.740Z,13.20
2022-08-20T03:36:19.207Z,12.48
2022-08-20T03:37:10.220Z,11.77
2022-08-20T03:37:57.569Z,11.68
2022-08-20T03:38:44.570Z,11.93
2022-08-20T03:39:31.418Z,12.23
2022-08-20T03:40:32.799Z,12.23
2022-08-20T03:41:19.810Z,11.00
2022-08-20T03:42:07.240Z,12.18
2022-08-20T03:42:54.289Z,11.93
2022-08-20T03:43:41.959Z,11.65
2022-08-20T03:44:28.860Z,11.75
2022-08-20T03:45:20.259Z,11.98
2022-08-20T03:46:22.288Z,12.70
2022-08-20T03:47:10.171Z,12.48
2022-08-20T03:47:58.195Z,13.30
2022-08-20T03:48:45.300Z,12.60
2022-08-20T03:49:32.401Z,13.45
2022-08-20T03:50:24.629Z,13.27
2022-08-20T03:51:11.429Z,12.37
2022-08-20T03:51:58.683Z,12.93
2022-08-20T03:52:45.470Z,13.43
2022-08-20T03:53:32.259Z,13.65
2022-08-20T03:54:19.180Z,13.13
2022-08-20T03:55:07.770Z,12.00
2022-08-20T03:55:55.769Z,14.60
2022-08-20T03:57:31.839Z,13.50
2022-08-20T03:58:19.621Z,16.00
2022-08-20T03:59:06.519Z,13.75
2022-08-20T03:59:54.843Z,14.70
2022-08-20T04:00:50.482Z,13.62
2022-08-20T04:01:46.359Z,14.25
2022-08-20T04:02:34.540Z,14.23
2022-08-20T04:03:42.289Z,17.23
2022-08-20T04:04:29.100Z,18.08
2022-08-20T04:05:16.039Z,17.15
2022-08-20T04:06:03.908Z,17.65
2022-08-20T04:06:50.720Z,18.48
2022-08-20T04:07:38.079Z,17.73
2022-08-20T04:08:29.739Z,18.50
2022-08-20T04:09:16.759Z,18.30
2022-08-20T04:10:06.902Z,17.83
2022-08-20T04:10:57.710Z,18.15
2022-08-20T04:11:44.740Z,18.27
2022-08-20T04:12:31.620Z,19.70
2022-08-20T04:13:20.999Z,19.75
2022-08-20T04:14:11.541Z,19.40
2022-08-20T04:15:02.797Z,18.98
2022-08-20T04:15:53.641Z,18.73
2022-08-20T04:16:44.029Z,18.58
2022-08-20T04:17:33.672Z,19.37
2022-08-20T04:18:23.229Z,18.65
2022-08-20T04:19:10.070Z,19.00
2022-08-20T04:19:56.820Z,18.45
2022-08-20T04:20:44.010Z,17.58
2022-08-20T04:21:35.318Z,19.87
2022-08-20T04:22:22.720Z,18.75
2022-08-20T04:23:10.101Z,18.70
2022-08-20T04:23:56.920Z,19.12
2022-08-20T04:24:43.979Z,19.45
2022-08-20T04:25:35.906Z,19.30
2022-08-20T04:26:23.341Z,19.20
2022-08-20T04:27:11.119Z,20.55
2022-08-20T04:27:59.259Z,19.20
2022-08-20T04:28:46.102Z,19.65
2022-08-20T04:29:35.370Z,20.33
2022-08-20T04:30:23.482Z,18.27
2022-08-20T04:31:13.039Z,18.75
2022-08-20T04:32:02.785Z,19.60
2022-08-20T04:32:53.439Z,19.42
2022-08-20T04:33:43.241Z,19.77
2022-08-20T04:34:30.220Z,19.27
2022-08-20T04:35:20.221Z,18.87
2022-08-20T04:36:07.750Z,19.75
2022-08-20T04:36:54.679Z,18.67
2022-08-20T04:37:42.340Z,18.42
2022-08-20T04:38:50.009Z,18.52
2022-08-20T04:39:37.457Z,19.23
2022-08-20T04:40:42.879Z,18.83
2022-08-20T04:41:29.782Z,18.27
2022-08-20T04:42:16.553Z,19.58
2022-08-20T04:43:05.390Z,19.60
2022-08-20T04:43:54.373Z,18.80
2022-08-20T04:44:41.489Z,18.62
2022-08-20T04:45:28.409Z,20.00
2022-08-20T04:46:15.629Z,18.92
2022-08-20T04:47:02.450Z,18.70
2022-08-20T04:47:50.297Z,17.52
2022-08-20T04:48:39.420Z,18.52
2022-08-20T04:49:28.039Z,19.33
2022-08-20T04:50:15.080Z,17.87
2022-08-20T04:51:03.838Z,18.42
2022-08-20T04:51:51.130Z,18.02
2022-08-20T04:52:38.160Z,18.00
2022-08-20T04:53:27.291Z,17.37
2022-08-20T04:54:14.704Z,17.98
2022-08-20T04:55:02.251Z,18.12
2022-08-20T04:55:50.360Z,18.23
2022-08-20T04:56:40.189Z,19.52
2022-08-20T04:57:26.999Z,18.85
2022-08-20T04:58:21.703Z,19.75
2022-08-20T04:59:09.221Z,18.12
2022-08-20T04:59:59.373Z,19.67
2022-08-20T05:00:49.465Z,17.62
2022-08-20T05:01:36.405Z,17.73
2022-08-20T05:02:23.320Z,19.25
2022-08-20T05:03:10.180Z,17.73
2022-08-20T05:03:58.019Z,17.90
2022-08-20T05:04:45.468Z,17.25
2022-08-20T05:05:32.361Z,18.45
2022-08-20T05:06:19.981Z,17.17
2022-08-20T05:07:06.799Z,18.10
2022-08-20T05:07:53.890Z,17.85
2022-08-20T05:08:40.820Z,18.20
2022-08-20T05:09:27.700Z,18.17
2022-08-20T05:10:16.701Z,17.23
2022-08-20T05:11:32.633Z,17.20
2022-08-20T05:12:10.560Z,17.02
2022-08-20T05:12:57.630Z,18.23
2022-08-20T05:13:44.519Z,18.08
2022-08-20T05:14:31.500Z,16.35
2022-08-20T05:15:18.399Z,17.85
2022-08-20T05:16:06.723Z,16.92
2022-08-20T05:16:56.969Z,18.87
2022-08-20T05:17:44.652Z,17.77
2022-08-20T05:18:35.311Z,17.80
2022-08-20T05:19:22.530Z,16.60
2022-08-20T05:20:13.369Z,16.85
2022-08-20T05:21:06.050Z,16.40
2022-08-20T05:21:53.911Z,16.70
2022-08-20T05:22:40.810Z,17.50
2022-08-20T05:23:27.640Z,16.60
2022-08-20T05:24:14.785Z,16.40
2022-08-20T05:25:02.129Z,14.80
2022-08-20T05:25:52.692Z,17.08
2022-08-20T05:26:40.248Z,14.63
2022-08-20T05:27:27.319Z,16.52
2022-08-20T05:28:20.139Z,15.52
2022-08-20T05:29:07.682Z,14.73
2022-08-20T05:29:56.200Z,15.40
2022-08-20T05:30:45.569Z,14.65
2022-08-20T05:31:35.099Z,15.05
2022-08-20T05:32:22.670Z,15.73
2022-08-20T05:33:10.359Z,16.15
2022-08-20T05:33:58.084Z,15.63
2022-08-20T05:34:44.831Z,15.60
2022-08-20T05:35:34.971Z,15.32
2022-08-20T05:36:21.853Z,14.98
2022-08-20T05:37:10.347Z,16.15
2022-08-20T05:37:58.829Z,15.65
2022-08-20T05:38:49.668Z,15.43
2022-08-20T05:39:37.605Z,16.02
2022-08-20T05:40:25.144Z,16.48
2022-08-20T05:41:12.020Z,15.95
2022-08-20T05:42:15.250Z,14.95
2022-08-20T05:43:04.781Z,14.77
2022-08-20T05:43:51.667Z,14.50
2022-08-20T05:44:38.860Z,13.98
2022-08-20T05:45:25.685Z,14.60
2022-08-20T05:46:13.474Z,16.00
2022-08-20T05:47:00.330Z,14.48
2022-08-20T05:47:56.402Z,13.73
2022-08-20T05:48:43.529Z,13.43
2022-08-20T05:49:30.940Z,13.40
2022-08-20T05:50:23.252Z,13.50
2022-08-20T05:51:15.017Z,13.00
2022-08-20T05:52:02.071Z,13.55
2022-08-20T05:52:48.809Z,12.80
2022-08-20T05:53:35.681Z,12.93
2022-08-20T05:54:24.133Z,13.50
2022-08-20T05:55:15.749Z,13.07
2022-08-20T05:56:02.741Z,13.35
2022-08-20T05:56:50.430Z,12.95
2022-08-20T05:57:37.374Z,13.55
2022-08-20T05:58:27.101Z,12.35
2022-08-20T05:59:14.357Z,13.00
2022-08-20T06:00:02.950Z,13.62
2022-08-20T06:00:50.646Z,12.73
2022-08-20T06:01:39.460Z,13.25
2022-08-20T06:02:45.339Z,12.57
2022-08-20T06:03:51.000Z,12.48
2022-08-20T06:04:38.220Z,13.10
2022-08-20T06:05:25.960Z,12.00
2022-08-20T06:06:18.027Z,12.80
2022-08-20T06:07:20.130Z,13.38
2022-08-20T06:08:09.289Z,12.43
2022-08-20T06:08:56.081Z,13.52
2022-08-20T06:09:44.516Z,13.18
2022-08-20T06:10:31.501Z,12.50
2022-08-20T06:11:19.120Z,13.95
2022-08-20T06:12:09.011Z,12.60
2022-08-20T06:12:55.910Z,13.05
2022-08-20T06:13:42.808Z,13.27
2022-08-20T06:14:29.761Z,13.15
2022-08-20T06:15:16.757Z,12.60
2022-08-20T06:16:06.836Z,13.52
2022-08-20T06:16:58.045Z,13.00
2022-08-20T06:17:46.179Z,13.30
2022-08-20T06:18:45.139Z,13.45
2022-08-20T06:19:33.191Z,13.45
2022-08-20T06:20:20.237Z,13.60
2022-08-20T06:21:07.347Z,13.45
2022-08-20T06:21:56.619Z,14.00
2022-08-20T06:22:43.700Z,14.15
2022-08-20T06:23:57.971Z,14.40
2022-08-20T06:24:37.450Z,11.77
2022-08-20T06:25:24.351Z,12.93
2022-08-20T06:26:11.530Z,12.63
2022-08-20T06:27:03.381Z,11.50
2022-08-20T06:27:50.380Z,12.10
2022-08-20T06:28:37.226Z,12.25
2022-08-20T06:29:24.120Z,12.05
2022-08-20T06:30:13.753Z,12.13
2022-08-20T06:31:00.625Z,13.05
2022-08-20T06:31:47.510Z,12.43
2022-08-20T06:32:34.300Z,12.30
2022-08-20T06:33:21.151Z,14.05
2022-08-20T06:34:07.870Z,13.27
2022-08-20T06:34:54.711Z,12.68
2022-08-20T06:35:44.490Z,13.05
2022-08-20T06:36:31.440Z,13.43
2022-08-20T06:37:27.410Z,12.65
2022-08-20T06:38:18.429Z,12.27
2022-08-20T06:39:05.180Z,13.20
2022-08-20T06:39:52.768Z,13.77
2022-08-20T06:40:40.899Z,13.02
2022-08-20T06:41:36.200Z,13.02
2022-08-20T06:42:24.100Z,13.98
2022-08-20T06:43:12.172Z,13.35
2022-08-20T06:44:00.681Z,13.23
2022-08-20T06:44:50.195Z,13.35
2022-08-20T06:45:39.129Z,13.07
2022-08-20T06:46:25.949Z,13.15
2022-08-20T06:47:15.170Z,12.98
2022-08-20T06:48:07.320Z,13.45
2022-08-20T06:48:54.202Z,13.32
2022-08-20T06:49:41.059Z,12.68
2022-08-20T06:50:33.639Z,12.55
2022-08-20T06:51:20.520Z,12.82
2022-08-20T06:52:07.269Z,12.85
2022-08-20T06:52:59.453Z,12.35
2022-08-20T06:53:46.530Z,12.63
2022-08-20T06:54:34.549Z,12.88
2022-08-20T06:55:22.353Z,13.05
2022-08-20T06:56:09.226Z,13.18
2022-08-20T06:56:56.070Z,12.48
2022-08-20T06:57:43.679Z,12.65
2022-08-20T06:58:37.207Z,12.82
2022-08-20T06:59:25.434Z,12.43
2022-08-20T07:00:18.310Z,13.32
2022-08-20T07:01:10.284Z,13.02
2022-08-20T07:01:57.740Z,13.07
2022-08-20T07:02:44.570Z,12.73
2022-08-20T07:03:31.419Z,13.10
2022-08-20T07:04:18.309Z,12.70
2022-08-20T07:05:05.589Z,12.90
2022-08-20T07:05:52.695Z,12.13
2022-08-20T07:06:39.512Z,12.60
2022-08-20T07:07:26.329Z,12.48
2022-08-20T07:08:18.800Z,12.18
2022-08-20T07:09:59.840Z,12.60
2022-08-20T07:10:46.649Z,13.07
2022-08-20T07:11:36.067Z,12.27
2022-08-20T07:12:22.913Z,12.63
2022-08-20T07:13:12.250Z,12.68
2022-08-20T07:13:59.605Z,11.63
2022-08-20T07:14:46.620Z,12.52
2022-08-20T07:15:33.870Z,12.75
2022-08-20T07:16:20.692Z,12.70
2022-08-20T07:17:09.678Z,12.98
2022-08-20T07:18:01.979Z,11.98
2022-08-20T07:18:48.809Z,11.77
2022-08-20T07:19:36.850Z,11.93
2022-08-20T07:20:24.149Z,10.68
2022-08-20T07:21:12.339Z,10.82
2022-08-20T07:21:59.510Z,11.15
2022-08-20T07:22:46.647Z,11.25
2022-08-20T07:23:33.579Z,10.45
2022-08-20T07:24:20.473Z,11.25
2022-08-20T07:25:10.821Z,11.40
2022-08-20T07:25:57.669Z,10.13
2022-08-20T07:26:44.521Z,10.63
2022-08-20T07:27:31.780Z,10.85
2022-08-20T07:28:21.267Z,10.25
2022-08-20T07:29:08.080Z,11.02
2022-08-20T07:30:15.225Z,11.43
2022-08-20T07:31:20.920Z,11.30
2022-08-20T07:32:26.591Z,11.18
2022-08-20T07:33:16.151Z,10.98
2022-08-20T07:34:05.600Z,12.55
2022-08-20T07:34:53.970Z,10.82
2022-08-20T07:35:42.110Z,11.05
2022-08-20T07:36:29.563Z,11.43
2022-08-20T07:37:16.460Z,10.65
2022-08-20T07:38:03.280Z,11.45
2022-08-20T07:38:51.126Z,11.27
2022-08-20T07:39:37.970Z,11.35
2022-08-20T07:40:29.219Z,11.68
2022-08-20T07:41:16.259Z,11.50
2022-08-20T07:42:07.389Z,10.82
2022-08-20T07:42:58.769Z,11.38
2022-08-20T07:43:46.332Z,11.07
2022-08-20T07:44:33.210Z,10.77
2022-08-20T07:45:20.871Z,11.07
2022-08-20T07:46:09.161Z,12.25
2022-08-20T07:46:58.366Z,11.73
2022-08-20T07:47:46.550Z,11.50
2022-08-20T07:48:34.131Z,11.75
2022-08-20T07:49:21.309Z,11.65
2022-08-20T07:50:10.320Z,11.18
2022-08-20T07:50:59.084Z,11.75
2022-08-20T07:51:46.009Z,12.35
2022-08-20T07:52:35.475Z,11.25
2022-08-20T07:53:22.694Z,11.80
2022-08-20T07:54:09.558Z,11.88
2022-08-20T07:54:56.359Z,11.93
2022-08-20T07:55:57.164Z,11.18
2022-08-20T07:56:46.222Z,12.25
2022-08-20T07:57:39.336Z,12.13
2022-08-20T07:58:27.646Z,12.23
2022-08-20T07:59:20.878Z,11.88
2022-08-20T08:00:09.990Z,10.68
2022-08-20T08:00:57.034Z,11.02
2022-08-20T08:01:45.766Z,11.12
2022-08-20T08:02:32.719Z,12.23
2022-08-20T08:03:19.882Z,11.20
2022-08-20T08:04:26.599Z,10.85
2022-08-20T08:05:13.880Z,10.93
2022-08-20T08:06:01.129Z,11.18
2022-08-20T08:06:48.179Z,11.80
2022-08-20T08:07:35.787Z,11.95
2022-08-20T08:08:28.429Z,12.55
2022-08-20T08:09:15.499Z,11.63
2022-08-20T08:10:04.810Z,11.82
2022-08-20T08:10:56.528Z,12.35
2022-08-20T08:11:50.473Z,12.13
2022-08-20T08:12:41.180Z,11.98
2022-08-20T08:13:35.869Z,12.02
2022-08-20T08:14:27.246Z,12.10
2022-08-20T08:15:17.699Z,12.55
2022-08-20T08:16:06.982Z,12.00
2022-08-20T08:16:57.626Z,11.60
2022-08-20T08:17:46.932Z,11.82
2022-08-20T08:18:42.528Z,11.77
2022-08-20T08:19:38.120Z,12.20
2022-08-20T08:20:25.352Z,12.48
2022-08-20T08:21:13.297Z,12.30
2022-08-20T08:22:00.380Z,12.35
2022-08-20T08:22:47.588Z,12.27
2022-08-20T08:23:35.390Z,12.20
2022-08-20T08:24:26.538Z,12.98
2022-08-20T08:25:17.219Z,12.23
2022-08-20T08:26:04.365Z,12.15
2022-08-20T08:26:52.778Z,12.55
2022-08-20T08:27:40.631Z,13.18
2022-08-20T08:28:30.749Z,12.10
2022-08-20T08:29:17.932Z,12.77
2022-08-20T08:30:07.789Z,12.18
2022-08-20T08:30:54.791Z,12.43
2022-08-20T08:31:42.883Z,13.27
2022-08-20T08:32:32.061Z,12.25
2022-08-20T08:33:33.190Z,13.30
2022-08-20T08:34:20.371Z,12.73
2022-08-20T08:35:09.068Z,12.23
2022-08-20T08:35:57.058Z,12.98
2022-08-20T08:36:44.827Z,12.13
2022-08-20T08:37:32.411Z,12.25
2022-08-20T08:38:19.269Z,13.10
2022-08-20T08:39:06.270Z,12.73
2022-08-20T08:39:53.313Z,13.07
2022-08-20T08:40:40.700Z,13.30
2022-08-20T08:41:34.582Z,13.38
2022-08-20T08:42:43.365Z,12.50
2022-08-20T08:43:31.788Z,12.82
2022-08-20T08:44:23.581Z,13.50
2022-08-20T08:45:13.461Z,13.25
2022-08-20T08:46:05.960Z,11.93
2022-08-20T08:47:12.669Z,13.48
2022-08-20T08:47:59.610Z,12.55
2022-08-20T08:48:49.208Z,12.50
2022-08-20T08:49:37.972Z,12.03
2022-08-20T08:50:53.529Z,11.23
2022-08-20T08:51:49.326Z,12.25
2022-08-20T08:52:40.469Z,11.93
2022-08-20T08:53:33.522Z,12.02
2022-08-20T08:54:24.479Z,11.80
2022-08-20T08:55:16.210Z,12.57
2022-08-20T08:56:04.972Z,11.38
2022-08-20T08:56:53.091Z,11.45
2022-08-20T08:57:41.551Z,11.02
2022-08-20T08:58:28.602Z,11.82
2022-08-20T08:59:15.701Z,11.27
2022-08-20T09:00:10.447Z,11.10
2022-08-20T09:01:02.120Z,11.70
2022-08-20T09:01:58.239Z,11.70
2022-08-20T09:03:01.877Z,11.50
2022-08-20T09:03:51.957Z,10.95
2022-08-20T09:04:40.539Z,10.95
2022-08-20T09:05:38.490Z,11.20
2022-08-20T09:06:26.690Z,11.70
2022-08-20T09:07:16.537Z,12.55
2022-08-20T09:08:04.502Z,11.25
2022-08-20T09:09:27.178Z,11.32
2022-08-20T09:10:14.441Z,10.68
2022-08-20T09:11:05.292Z,10.95
2022-08-20T09:11:55.313Z,10.45
2022-08-20T09:12:47.115Z,10.00
2022-08-20T09:13:35.293Z,11.48
2022-08-20T09:14:25.149Z,10.68
2022-08-20T09:15:12.732Z,10.80
2022-08-20T09:15:59.982Z,10.52
2022-08-20T09:16:52.685Z,11.10
2022-08-20T09:17:40.040Z,10.63
2022-08-20T09:18:26.938Z,10.50
2022-08-20T09:19:13.871Z,10.80
2022-08-20T09:20:00.922Z,10.85
2022-08-20T09:20:47.739Z,11.25
2022-08-20T09:21:34.802Z,10.20
2022-08-20T09:22:23.509Z,11.02
2022-08-20T09:23:10.350Z,10.88
2022-08-20T09:23:57.328Z,9.68
2022-08-20T09:24:44.953Z,10.63
2022-08-20T09:25:32.140Z,10.75
2022-08-20T09:26:19.060Z,10.32
2022-08-20T09:27:06.106Z,9.82
2022-08-20T09:27:53.050Z,11.10
2022-08-20T09:28:39.976Z,10.70
2022-08-20T09:29:26.834Z,10.88
2022-08-20T09:30:15.060Z,10.95
2022-08-20T09:31:02.530Z,10.38
2022-08-20T09:31:49.290Z,10.70
2022-08-20T09:32:36.731Z,11.70
2022-08-20T09:33:23.770Z,10.38
2022-08-20T09:34:10.619Z,10.43
2022-08-20T09:34:59.156Z,9.38
2022-08-20T09:35:46.913Z,9.80
2022-08-20T09:36:33.740Z,8.73
2022-08-20T09:37:20.609Z,10.05
2022-08-20T09:38:08.150Z,9.80
2022-08-20T09:38:55.041Z,8.55
2022-08-20T09:39:42.086Z,8.80
2022-08-20T09:40:29.023Z,8.93
2022-08-20T09:41:15.961Z,8.90
2022-08-20T09:42:15.871Z,9.00
2022-08-20T09:43:05.823Z,9.50
2022-08-20T09:43:52.900Z,9.40
2022-08-20T09:44:40.345Z,9.10
2022-08-20T09:45:27.339Z,10.23
2022-08-20T09:46:14.273Z,9.68
2022-08-20T09:47:01.161Z,9.23
2022-08-20T09:47:55.147Z,8.48
2022-08-20T09:48:43.948Z,9.52
2022-08-20T09:49:31.194Z,8.38
2022-08-20T09:50:18.388Z,9.15
2022-08-20T09:51:05.602Z,9.38
2022-08-20T09:51:52.401Z,9.55
2022-08-20T09:52:45.149Z,9.07
2022-08-20T09:53:32.121Z,9.23
2022-08-20T09:54:20.517Z,8.75
2022-08-20T09:55:30.684Z,9.48
2022-08-20T09:56:18.041Z,8.98
2022-08-20T09:57:06.711Z,9.45
2022-08-20T09:57:53.764Z,9.32
2022-08-20T09:58:52.052Z,9.60
2022-08-20T09:59:39.221Z,9.10
2022-08-20T10:00:26.308Z,9.25
2022-08-20T10:01:15.464Z,10.02
2022-08-20T10:02:02.769Z,9.20
2022-08-20T10:02:49.679Z,9.68
2022-08-20T10:03:36.672Z,10.23
2022-08-20T10:04:28.951Z,10.45
2022-08-20T10:05:15.989Z,9.60
2022-08-20T10:06:03.048Z,9.70
2022-08-20T10:06:49.946Z,10.15
2022-08-20T10:07:38.640Z,10.18
2022-08-20T10:08:26.120Z,10.10
2022-08-20T10:09:15.741Z,10.40
2022-08-20T10:10:02.946Z,10.68
2022-08-20T10:10:49.823Z,10.10
2022-08-20T10:11:36.789Z,10.18
2022-08-20T10:12:23.630Z,10.15
2022-08-20T10:13:13.310Z,10.45
2022-08-20T10:14:02.648Z,10.15
2022-08-20T10:14:50.059Z,10.00
2022-08-20T10:15:37.093Z,9.60
2022-08-20T10:16:24.398Z,9.80
2022-08-20T10:17:11.398Z,9.55
2022-08-20T10:17:58.735Z,9.68
2022-08-20T10:18:45.819Z,9.73
2022-08-20T10:19:32.790Z,10.23
2022-08-20T10:20:20.199Z,10.65
2022-08-20T10:21:13.444Z,9.85
2022-08-20T10:22:00.590Z,9.77
2022-08-20T10:22:47.560Z,10.00
2022-08-20T10:23:34.420Z,10.40
2022-08-20T10:24:21.850Z,9.95
2022-08-20T10:25:09.432Z,9.80
2022-08-20T10:25:56.258Z,10.25
2022-08-20T10:26:43.135Z,10.23
2022-08-20T10:27:30.250Z,9.43
2022-08-20T10:28:17.070Z,9.90
2022-08-20T10:29:03.979Z,9.70
2022-08-20T10:29:50.964Z,10.25
2022-08-20T10:30:38.019Z,10.07
2022-08-20T10:31:24.924Z,9.65
2022-08-20T10:32:15.140Z,10.00
2022-08-20T10:33:02.292Z,9.15
2022-08-20T10:33:49.190Z,10.18
2022-08-20T10:34:36.222Z,9.82
2022-08-20T10:35:23.197Z,9.65
2022-08-20T10:36:16.880Z,10.00
2022-08-20T10:37:03.782Z,10.05
2022-08-20T10:37:50.862Z,9.52
2022-08-20T10:38:38.189Z,10.10
2022-08-20T10:39:24.992Z,9.57
2022-08-20T10:40:14.101Z,10.23
2022-08-20T10:41:01.125Z,9.40
2022-08-20T10:41:48.139Z,8.63
2022-08-20T10:42:37.010Z,8.35
2022-08-20T10:43:28.365Z,9.00
2022-08-20T10:44:17.760Z,8.77